sensor_id;sensor_type;location;lat;lon;timestamp;P1;durP1;ratioP1;P2;durP2;ratioP2
43182;SDS011;28802;38.578;-0.066;2022-11-14T00:00:21;6.20;;;5.60;;
43182;SDS011;28802;38.578;-0.066;2022-11-14T00:03:06;5.97;;;5.40;;
43182;SDS011;28802;38.578;-0.066;2022-11-14T00:05:51;5.40;;;5.00;;
43182;SDS011;28802;38.578;-0.066;2022-11-14T00:08:36;5.83;;;5.10;;
43182;SDS011;28802;38.578;-0.066;2022-11-14T00:11:21;7.73;;;6.20;;
43182;SDS011;28802;38.578;-0.066;2022-11-14T00:14:05;7.80;;;2.90;;
43182;SDS011;28802;38.578;-0.066;2022-11-14T00:16:50;7.67;;;5.37;;
43182;SDS011;28802;38.578;-0.066;2022-11-14T00:19:35;12.57;;;5.37;;
43182;SDS011;28802;38.578;-0.066;2022-11-14T00:22:19;10.53;;;3.80;;
43182;SDS011;28802;38.578;-0.066;2022-11-14T00:25:04;6.73;;;3.97;;
43182;SDS011;28802;38.578;-0.066;2022-11-14T00:27:49;7.57;;;3.97;;
43182;SDS011;28802;38.578;-0.066;2022-11-14T00:30:34;4.93;;;4.27;;
43182;SDS011;28802;38.578;-0.066;2022-11-14T00:33:18;8.80;;;4.90;;
43182;SDS011;28802;38.578;-0.066;2022-11-14T00:36:04;10.27;;;4.83;;
43182;SDS011;28802;38.578;-0.066;2022-11-14T00:38:51;6.70;;;3.80;;
43182;SDS011;28802;38.578;-0.066;2022-11-14T00:41:36;9.00;;;3.97;;
43182;SDS011;28802;38.578;-0.066;2022-11-14T00:44:21;8.23;;;4.40;;
43182;SDS011;28802;38.578;-0.066;2022-11-14T00:47:05;2.77;;;2.50;;
43182;SDS011;28802;38.578;-0.066;2022-11-14T00:49:50;4.93;;;2.90;;
43182;SDS011;28802;38.578;-0.066;2022-11-14T00:52:34;6.07;;;2.67;;
43182;SDS011;28802;38.578;-0.066;2022-11-14T00:55:19;2.90;;;2.60;;
43182;SDS011;28802;38.578;-0.066;2022-11-14T00:58:04;9.10;;;3.60;;
43182;SDS011;28802;38.578;-0.066;2022-11-14T01:00:48;5.10;;;2.20;;
43182;SDS011;28802;38.578;-0.066;2022-11-14T01:03:33;5.13;;;2.60;;
43182;SDS011;28802;38.578;-0.066;2022-11-14T01:06:18;5.93;;;2.33;;
43182;SDS011;28802;38.578;-0.066;2022-11-14T01:09:03;9.30;;;2.73;;
43182;SDS011;28802;38.578;-0.066;2022-11-14T01:11:48;8.53;;;2.00;;
43182;SDS011;28802;38.578;-0.066;2022-11-14T01:14:32;4.20;;;2.20;;
43182;SDS011;28802;38.578;-0.066;2022-11-14T01:17:16;4.37;;;2.37;;
43182;SDS011;28802;38.578;-0.066;2022-11-14T01:20:00;4.90;;;2.47;;
43182;SDS011;28802;38.578;-0.066;2022-11-14T01:22:45;6.60;;;2.93;;
43182;SDS011;28802;38.578;-0.066;2022-11-14T01:25:31;3.73;;;2.33;;
43182;SDS011;28802;38.578;-0.066;2022-11-14T01:28:17;6.50;;;2.97;;
43182;SDS011;28802;38.578;-0.066;2022-11-14T01:31:08;4.17;;;2.33;;
43182;SDS011;28802;38.578;-0.066;2022-11-14T01:33:56;3.27;;;1.90;;
43182;SDS011;28802;38.578;-0.066;2022-11-14T01:36:40;7.30;;;3.30;;
43182;SDS011;28802;38.578;-0.066;2022-11-14T01:39:25;6.63;;;2.80;;
43182;SDS011;28802;38.578;-0.066;2022-11-14T01:42:10;6.67;;;2.57;;
43182;SDS011;28802;38.578;-0.066;2022-11-14T01:44:54;8.43;;;2.83;;
43182;SDS011;28802;38.578;-0.066;2022-11-14T01:47:38;4.07;;;2.40;;
43182;SDS011;28802;38.578;-0.066;2022-11-14T01:50:24;2.70;;;2.50;;
43182;SDS011;28802;38.578;-0.066;2022-11-14T01:53:11;3.90;;;2.70;;
43182;SDS011;28802;38.578;-0.066;2022-11-14T01:55:57;5.27;;;2.67;;
43182;SDS011;28802;38.578;-0.066;2022-11-14T01:58:45;5.03;;;4.53;;
43182;SDS011;28802;38.578;-0.066;2022-11-14T02:01:52;4.00;;;2.43;;
43182;SDS011;28802;38.578;-0.066;2022-11-14T02:04:40;5.37;;;2.23;;
43182;SDS011;28802;38.578;-0.066;2022-11-14T02:07:28;5.83;;;2.60;;
43182;SDS011;28802;38.578;-0.066;2022-11-14T02:10:16;5.57;;;2.80;;
43182;SDS011;28802;38.578;-0.066;2022-11-14T02:13:02;7.87;;;4.60;;
43182;SDS011;28802;38.578;-0.066;2022-11-14T02:15:47;8.00;;;2.27;;
43182;SDS011;28802;38.578;-0.066;2022-11-14T02:18:31;7.60;;;2.60;;
43182;SDS011;28802;38.578;-0.066;2022-11-14T02:21:16;11.00;;;3.17;;
43182;SDS011;28802;38.578;-0.066;2022-11-14T02:24:00;4.63;;;3.70;;
43182;SDS011;28802;38.578;-0.066;2022-11-14T02:26:45;8.50;;;5.53;;
43182;SDS011;28802;38.578;-0.066;2022-11-14T02:29:30;6.87;;;4.30;;
43182;SDS011;28802;38.578;-0.066;2022-11-14T02:32:15;5.63;;;5.00;;
43182;SDS011;28802;38.578;-0.066;2022-11-14T02:35:00;2.73;;;2.13;;
43182;SDS011;28802;38.578;-0.066;2022-11-14T02:37:45;6.43;;;2.03;;
43182;SDS011;28802;38.578;-0.066;2022-11-14T02:40:29;13.03;;;2.40;;
43182;SDS011;28802;38.578;-0.066;2022-11-14T02:43:14;4.40;;;2.37;;
43182;SDS011;28802;38.578;-0.066;2022-11-14T02:45:59;3.10;;;2.43;;
43182;SDS011;28802;38.578;-0.066;2022-11-14T02:48:43;4.17;;;2.63;;
43182;SDS011;28802;38.578;-0.066;2022-11-14T02:51:28;6.00;;;3.37;;
43182;SDS011;28802;38.578;-0.066;2022-11-14T02:54:12;3.00;;;2.50;;
43182;SDS011;28802;38.578;-0.066;2022-11-14T02:56:57;2.70;;;1.60;;
43182;SDS011;28802;38.578;-0.066;2022-11-14T02:59:41;6.27;;;2.37;;
43182;SDS011;28802;38.578;-0.066;2022-11-14T03:02:25;5.80;;;3.20;;
43182;SDS011;28802;38.578;-0.066;2022-11-14T03:05:10;2.73;;;2.20;;
43182;SDS011;28802;38.578;-0.066;2022-11-14T03:07:55;4.73;;;2.50;;
43182;SDS011;28802;38.578;-0.066;2022-11-14T03:10:39;7.00;;;2.37;;
43182;SDS011;28802;38.578;-0.066;2022-11-14T03:13:27;3.10;;;1.83;;
43182;SDS011;28802;38.578;-0.066;2022-11-14T03:16:12;2.37;;;2.00;;
43182;SDS011;28802;38.578;-0.066;2022-11-14T03:18:57;4.53;;;2.20;;
43182;SDS011;28802;38.578;-0.066;2022-11-14T03:21:41;6.53;;;2.20;;
43182;SDS011;28802;38.578;-0.066;2022-11-14T03:24:26;2.07;;;1.83;;
43182;SDS011;28802;38.578;-0.066;2022-11-14T03:27:11;5.60;;;2.50;;
43182;SDS011;28802;38.578;-0.066;2022-11-14T03:29:55;3.70;;;2.70;;
43182;SDS011;28802;38.578;-0.066;2022-11-14T03:32:40;4.37;;;2.00;;
43182;SDS011;28802;38.578;-0.066;2022-11-14T03:35:25;12.07;;;3.27;;
43182;SDS011;28802;38.578;-0.066;2022-11-14T03:38:09;3.10;;;2.20;;
43182;SDS011;28802;38.578;-0.066;2022-11-14T03:40:53;5.40;;;2.40;;
43182;SDS011;28802;38.578;-0.066;2022-11-14T03:43:40;3.97;;;2.50;;
43182;SDS011;28802;38.578;-0.066;2022-11-14T03:46:25;3.77;;;2.03;;
43182;SDS011;28802;38.578;-0.066;2022-11-14T03:49:09;5.50;;;2.60;;
43182;SDS011;28802;38.578;-0.066;2022-11-14T03:51:54;4.23;;;2.40;;
43182;SDS011;28802;38.578;-0.066;2022-11-14T03:54:38;2.70;;;2.03;;
43182;SDS011;28802;38.578;-0.066;2022-11-14T03:57:23;13.33;;;2.47;;
43182;SDS011;28802;38.578;-0.066;2022-11-14T04:00:08;5.33;;;2.80;;
43182;SDS011;28802;38.578;-0.066;2022-11-14T04:02:56;4.83;;;2.13;;
43182;SDS011;28802;38.578;-0.066;2022-11-14T04:05:44;8.13;;;2.50;;
43182;SDS011;28802;38.578;-0.066;2022-11-14T04:08:29;3.37;;;1.90;;
43182;SDS011;28802;38.578;-0.066;2022-11-14T04:11:13;7.90;;;2.00;;
43182;SDS011;28802;38.578;-0.066;2022-11-14T04:13:58;4.27;;;1.90;;
43182;SDS011;28802;38.578;-0.066;2022-11-14T04:16:42;5.90;;;2.83;;
43182;SDS011;28802;38.578;-0.066;2022-11-14T04:19:26;5.47;;;2.47;;
43182;SDS011;28802;38.578;-0.066;2022-11-14T04:22:11;4.70;;;1.97;;
43182;SDS011;28802;38.578;-0.066;2022-11-14T04:24:56;2.57;;;1.70;;
43182;SDS011;28802;38.578;-0.066;2022-11-14T04:27:40;5.40;;;2.00;;
43182;SDS011;28802;38.578;-0.066;2022-11-14T04:30:25;4.83;;;1.60;;
43182;SDS011;28802;38.578;-0.066;2022-11-14T04:33:10;4.80;;;1.90;;
43182;SDS011;28802;38.578;-0.066;2022-11-14T04:35:55;9.20;;;2.10;;
43182;SDS011;28802;38.578;-0.066;2022-11-14T04:38:39;4.20;;;1.90;;
43182;SDS011;28802;38.578;-0.066;2022-11-14T04:41:24;7.70;;;2.03;;
43182;SDS011;28802;38.578;-0.066;2022-11-14T04:44:08;7.77;;;1.97;;
43182;SDS011;28802;38.578;-0.066;2022-11-14T04:46:53;5.10;;;2.50;;
43182;SDS011;28802;38.578;-0.066;2022-11-14T04:49:37;4.33;;;1.80;;
43182;SDS011;28802;38.578;-0.066;2022-11-14T04:52:22;9.30;;;2.10;;
43182;SDS011;28802;38.578;-0.066;2022-11-14T04:55:07;2.80;;;2.23;;
43182;SDS011;28802;38.578;-0.066;2022-11-14T04:57:55;4.87;;;2.30;;
43182;SDS011;28802;38.578;-0.066;2022-11-14T05:00:40;4.50;;;2.00;;
43182;SDS011;28802;38.578;-0.066;2022-11-14T05:03:25;6.53;;;2.20;;
43182;SDS011;28802;38.578;-0.066;2022-11-14T05:06:09;3.00;;;2.33;;
43182;SDS011;28802;38.578;-0.066;2022-11-14T05:08:54;4.17;;;2.27;;
43182;SDS011;28802;38.578;-0.066;2022-11-14T05:11:38;4.40;;;2.33;;
43182;SDS011;28802;38.578;-0.066;2022-11-14T05:14:23;7.63;;;2.47;;
43182;SDS011;28802;38.578;-0.066;2022-11-14T05:17:07;4.47;;;2.10;;
43182;SDS011;28802;38.578;-0.066;2022-11-14T05:19:51;3.10;;;2.20;;
43182;SDS011;28802;38.578;-0.066;2022-11-14T05:22:36;6.07;;;2.50;;
43182;SDS011;28802;38.578;-0.066;2022-11-14T05:25:21;4.43;;;2.63;;
43182;SDS011;28802;38.578;-0.066;2022-11-14T05:28:05;2.93;;;2.20;;
43182;SDS011;28802;38.578;-0.066;2022-11-14T05:30:50;6.07;;;2.33;;
43182;SDS011;28802;38.578;-0.066;2022-11-14T05:33:34;12.73;;;2.80;;
43182;SDS011;28802;38.578;-0.066;2022-11-14T05:36:19;9.70;;;3.60;;
43182;SDS011;28802;38.578;-0.066;2022-11-14T05:39:04;5.10;;;2.13;;
43182;SDS011;28802;38.578;-0.066;2022-11-14T05:41:49;4.10;;;2.50;;
43182;SDS011;28802;38.578;-0.066;2022-11-14T05:44:33;4.00;;;1.90;;
43182;SDS011;28802;38.578;-0.066;2022-11-14T05:47:18;10.83;;;2.40;;
43182;SDS011;28802;38.578;-0.066;2022-11-14T05:50:02;5.20;;;2.27;;
43182;SDS011;28802;38.578;-0.066;2022-11-14T05:52:47;2.43;;;1.87;;
43182;SDS011;28802;38.578;-0.066;2022-11-14T05:55:31;7.27;;;5.30;;
43182;SDS011;28802;38.578;-0.066;2022-11-14T05:58:16;7.90;;;4.83;;
43182;SDS011;28802;38.578;-0.066;2022-11-14T06:01:11;12.90;;;6.40;;
43182;SDS011;28802;38.578;-0.066;2022-11-14T06:03:57;13.00;;;7.50;;
43182;SDS011;28802;38.578;-0.066;2022-11-14T06:06:41;17.10;;;9.63;;
43182;SDS011;28802;38.578;-0.066;2022-11-14T06:09:26;16.37;;;8.03;;
43182;SDS011;28802;38.578;-0.066;2022-11-14T06:12:10;14.60;;;8.27;;
43182;SDS011;28802;38.578;-0.066;2022-11-14T06:14:55;14.87;;;8.00;;
43182;SDS011;28802;38.578;-0.066;2022-11-14T06:17:39;8.47;;;6.57;;
43182;SDS011;28802;38.578;-0.066;2022-11-14T06:20:24;8.13;;;5.20;;
43182;SDS011;28802;38.578;-0.066;2022-11-14T06:23:09;11.33;;;6.30;;
43182;SDS011;28802;38.578;-0.066;2022-11-14T06:26:00;13.20;;;6.37;;
43182;SDS011;28802;38.578;-0.066;2022-11-14T06:28:46;7.90;;;5.10;;
43182;SDS011;28802;38.578;-0.066;2022-11-14T06:31:31;9.80;;;4.97;;
43182;SDS011;28802;38.578;-0.066;2022-11-14T06:34:16;9.00;;;4.60;;
43182;SDS011;28802;38.578;-0.066;2022-11-14T06:37:01;10.80;;;5.10;;
43182;SDS011;28802;38.578;-0.066;2022-11-14T06:39:45;10.47;;;5.60;;
43182;SDS011;28802;38.578;-0.066;2022-11-14T06:42:29;11.23;;;5.53;;
43182;SDS011;28802;38.578;-0.066;2022-11-14T06:45:13;20.03;;;7.67;;
43182;SDS011;28802;38.578;-0.066;2022-11-14T06:47:58;18.27;;;7.43;;
43182;SDS011;28802;38.578;-0.066;2022-11-14T06:50:43;26.97;;;9.07;;
43182;SDS011;28802;38.578;-0.066;2022-11-14T06:53:34;18.00;;;8.07;;
43182;SDS011;28802;38.578;-0.066;2022-11-14T06:56:19;27.03;;;9.60;;
43182;SDS011;28802;38.578;-0.066;2022-11-14T06:59:04;34.77;;;10.80;;
43182;SDS011;28802;38.578;-0.066;2022-11-14T07:01:49;31.43;;;11.10;;
43182;SDS011;28802;38.578;-0.066;2022-11-14T07:04:33;27.17;;;9.80;;
43182;SDS011;28802;38.578;-0.066;2022-11-14T07:07:17;21.93;;;9.63;;
43182;SDS011;28802;38.578;-0.066;2022-11-14T07:10:02;26.50;;;9.57;;
43182;SDS011;28802;38.578;-0.066;2022-11-14T07:12:46;29.13;;;11.10;;
43182;SDS011;28802;38.578;-0.066;2022-11-14T07:15:31;20.73;;;10.20;;
43182;SDS011;28802;38.578;-0.066;2022-11-14T07:18:15;28.73;;;11.47;;
43182;SDS011;28802;38.578;-0.066;2022-11-14T07:21:02;27.10;;;9.60;;
43182;SDS011;28802;38.578;-0.066;2022-11-14T07:23:48;19.67;;;8.60;;
43182;SDS011;28802;38.578;-0.066;2022-11-14T07:26:32;26.33;;;9.93;;
43182;SDS011;28802;38.578;-0.066;2022-11-14T07:29:17;30.20;;;9.10;;
43182;SDS011;28802;38.578;-0.066;2022-11-14T07:32:02;21.97;;;8.47;;
43182;SDS011;28802;38.578;-0.066;2022-11-14T07:34:47;19.03;;;7.37;;
43182;SDS011;28802;38.578;-0.066;2022-11-14T07:37:31;24.47;;;7.70;;
43182;SDS011;28802;38.578;-0.066;2022-11-14T07:40:18;10.23;;;6.27;;
43182;SDS011;28802;38.578;-0.066;2022-11-14T07:43:03;20.63;;;7.20;;
43182;SDS011;28802;38.578;-0.066;2022-11-14T07:45:48;12.20;;;6.90;;
43182;SDS011;28802;38.578;-0.066;2022-11-14T07:48:32;19.73;;;7.00;;
43182;SDS011;28802;38.578;-0.066;2022-11-14T07:51:18;27.80;;;6.70;;
43182;SDS011;28802;38.578;-0.066;2022-11-14T07:54:03;40.77;;;8.33;;
43182;SDS011;28802;38.578;-0.066;2022-11-14T07:56:50;24.40;;;6.83;;
43182;SDS011;28802;38.578;-0.066;2022-11-14T07:59:35;22.03;;;6.73;;
43182;SDS011;28802;38.578;-0.066;2022-11-14T08:02:19;19.53;;;9.17;;
43182;SDS011;28802;38.578;-0.066;2022-11-14T08:05:05;21.93;;;7.97;;
43182;SDS011;28802;38.578;-0.066;2022-11-14T08:07:51;19.40;;;7.30;;
43182;SDS011;28802;38.578;-0.066;2022-11-14T08:10:35;17.90;;;8.50;;
43182;SDS011;28802;38.578;-0.066;2022-11-14T08:13:21;12.67;;;7.73;;
43182;SDS011;28802;38.578;-0.066;2022-11-14T08:16:06;21.60;;;8.00;;
43182;SDS011;28802;38.578;-0.066;2022-11-14T08:18:52;16.30;;;6.83;;
43182;SDS011;28802;38.578;-0.066;2022-11-14T08:21:37;19.33;;;8.30;;
43182;SDS011;28802;38.578;-0.066;2022-11-14T08:24:22;23.33;;;7.90;;
43182;SDS011;28802;38.578;-0.066;2022-11-14T08:27:06;20.30;;;7.10;;
43182;SDS011;28802;38.578;-0.066;2022-11-14T08:29:51;17.90;;;6.87;;
43182;SDS011;28802;38.578;-0.066;2022-11-14T08:32:35;24.50;;;8.77;;
43182;SDS011;28802;38.578;-0.066;2022-11-14T08:35:20;22.03;;;8.03;;
43182;SDS011;28802;38.578;-0.066;2022-11-14T08:38:07;25.87;;;8.50;;
43182;SDS011;28802;38.578;-0.066;2022-11-14T08:40:52;17.57;;;6.80;;
43182;SDS011;28802;38.578;-0.066;2022-11-14T08:43:36;17.03;;;5.50;;
43182;SDS011;28802;38.578;-0.066;2022-11-14T08:46:21;19.50;;;6.00;;
43182;SDS011;28802;38.578;-0.066;2022-11-14T08:49:05;25.53;;;6.53;;
43182;SDS011;28802;38.578;-0.066;2022-11-14T08:51:50;14.30;;;6.50;;
43182;SDS011;28802;38.578;-0.066;2022-11-14T08:54:35;23.93;;;5.80;;
43182;SDS011;28802;38.578;-0.066;2022-11-14T08:57:19;11.40;;;4.70;;
43182;SDS011;28802;38.578;-0.066;2022-11-14T09:00:04;18.87;;;5.50;;
43182;SDS011;28802;38.578;-0.066;2022-11-14T09:02:49;10.27;;;3.93;;
43182;SDS011;28802;38.578;-0.066;2022-11-14T09:05:33;23.13;;;4.33;;
43182;SDS011;28802;38.578;-0.066;2022-11-14T09:08:19;11.93;;;4.63;;
43182;SDS011;28802;38.578;-0.066;2022-11-14T09:11:04;13.13;;;4.33;;
43182;SDS011;28802;38.578;-0.066;2022-11-14T09:13:49;17.20;;;4.40;;
43182;SDS011;28802;38.578;-0.066;2022-11-14T09:16:34;17.80;;;4.80;;
43182;SDS011;28802;38.578;-0.066;2022-11-14T09:19:20;17.67;;;3.70;;
43182;SDS011;28802;38.578;-0.066;2022-11-14T09:22:05;15.50;;;3.17;;
43182;SDS011;28802;38.578;-0.066;2022-11-14T09:24:53;12.10;;;2.90;;
43182;SDS011;28802;38.578;-0.066;2022-11-14T09:27:42;11.07;;;2.67;;
43182;SDS011;28802;38.578;-0.066;2022-11-14T09:30:27;17.20;;;3.10;;
43182;SDS011;28802;38.578;-0.066;2022-11-14T09:33:12;11.60;;;4.20;;
43182;SDS011;28802;38.578;-0.066;2022-11-14T09:36:00;11.00;;;4.23;;
43182;SDS011;28802;38.578;-0.066;2022-11-14T09:38:49;10.63;;;3.60;;
43182;SDS011;28802;38.578;-0.066;2022-11-14T09:41:42;17.47;;;3.43;;
43182;SDS011;28802;38.578;-0.066;2022-11-14T09:47:36;9.20;;;3.87;;
43182;SDS011;28802;38.578;-0.066;2022-11-14T09:50:28;13.60;;;4.53;;
43182;SDS011;28802;38.578;-0.066;2022-11-14T09:53:19;23.30;;;5.60;;
43182;SDS011;28802;38.578;-0.066;2022-11-14T09:56:13;12.70;;;3.53;;
43182;SDS011;28802;38.578;-0.066;2022-11-14T09:59:02;15.30;;;4.37;;
43182;SDS011;28802;38.578;-0.066;2022-11-14T10:01:55;23.00;;;4.10;;
43182;SDS011;28802;38.578;-0.066;2022-11-14T10:08:01;13.97;;;4.30;;
43182;SDS011;28802;38.578;-0.066;2022-11-14T10:14:25;15.83;;;4.10;;
43182;SDS011;28802;38.578;-0.066;2022-11-14T10:20:28;11.00;;;3.60;;
43182;SDS011;28802;38.578;-0.066;2022-11-14T10:23:37;12.73;;;3.43;;
43182;SDS011;28802;38.578;-0.066;2022-11-14T10:26:31;12.17;;;3.07;;
43182;SDS011;28802;38.578;-0.066;2022-11-14T10:29:49;11.70;;;2.57;;
43182;SDS011;28802;38.578;-0.066;2022-11-14T10:39:10;9.40;;;2.90;;
43182;SDS011;28802;38.578;-0.066;2022-11-14T10:42:13;15.73;;;2.63;;
43182;SDS011;28802;38.578;-0.066;2022-11-14T10:45:27;14.67;;;2.90;;
43182;SDS011;28802;38.578;-0.066;2022-11-14T10:48:32;9.63;;;2.70;;
43182;SDS011;28802;38.578;-0.066;2022-11-14T10:51:37;13.50;;;3.03;;
43182;SDS011;28802;38.578;-0.066;2022-11-14T10:54:58;14.80;;;2.63;;
43182;SDS011;28802;38.578;-0.066;2022-11-14T10:57:49;23.57;;;4.43;;
43182;SDS011;28802;38.578;-0.066;2022-11-14T11:00:33;15.00;;;3.07;;
43182;SDS011;28802;38.578;-0.066;2022-11-14T11:03:18;12.30;;;3.33;;
43182;SDS011;28802;38.578;-0.066;2022-11-14T11:06:03;17.13;;;2.70;;
43182;SDS011;28802;38.578;-0.066;2022-11-14T11:08:47;16.97;;;2.70;;
43182;SDS011;28802;38.578;-0.066;2022-11-14T11:11:55;9.90;;;2.63;;
43182;SDS011;28802;38.578;-0.066;2022-11-14T11:14:41;10.47;;;3.10;;
43182;SDS011;28802;38.578;-0.066;2022-11-14T11:17:27;13.80;;;3.23;;
43182;SDS011;28802;38.578;-0.066;2022-11-14T11:20:25;18.03;;;2.30;;
43182;SDS011;28802;38.578;-0.066;2022-11-14T11:23:23;17.20;;;3.60;;
43182;SDS011;28802;38.578;-0.066;2022-11-14T11:29:15;13.60;;;3.37;;
43182;SDS011;28802;38.578;-0.066;2022-11-14T11:32:00;14.20;;;2.90;;
43182;SDS011;28802;38.578;-0.066;2022-11-14T11:34:45;9.50;;;2.57;;
43182;SDS011;28802;38.578;-0.066;2022-11-14T11:37:31;8.67;;;2.80;;
43182;SDS011;28802;38.578;-0.066;2022-11-14T11:40:24;13.87;;;3.77;;
43182;SDS011;28802;38.578;-0.066;2022-11-14T11:46:00;11.73;;;2.90;;
43182;SDS011;28802;38.578;-0.066;2022-11-14T11:48:50;7.60;;;2.10;;
43182;SDS011;28802;38.578;-0.066;2022-11-14T11:51:46;11.37;;;2.97;;
43182;SDS011;28802;38.578;-0.066;2022-11-14T11:54:49;12.13;;;2.97;;
43182;SDS011;28802;38.578;-0.066;2022-11-14T11:57:42;13.00;;;2.87;;
43182;SDS011;28802;38.578;-0.066;2022-11-14T12:00:56;10.03;;;2.27;;
43182;SDS011;28802;38.578;-0.066;2022-11-14T12:03:41;12.90;;;2.83;;
43182;SDS011;28802;38.578;-0.066;2022-11-14T12:06:32;10.10;;;2.87;;
43182;SDS011;28802;38.578;-0.066;2022-11-14T12:09:26;15.50;;;3.17;;
43182;SDS011;28802;38.578;-0.066;2022-11-14T12:12:26;27.30;;;3.53;;
43182;SDS011;28802;38.578;-0.066;2022-11-14T12:27:40;10.50;;;3.97;;
43182;SDS011;28802;38.578;-0.066;2022-11-14T12:30:50;13.63;;;4.83;;
43182;SDS011;28802;38.578;-0.066;2022-11-14T12:33:43;16.10;;;4.80;;
43182;SDS011;28802;38.578;-0.066;2022-11-14T12:36:41;17.90;;;3.83;;
43182;SDS011;28802;38.578;-0.066;2022-11-14T12:39:27;9.60;;;3.80;;
43182;SDS011;28802;38.578;-0.066;2022-11-14T12:42:17;17.35;;;4.93;;
43182;SDS011;28802;38.578;-0.066;2022-11-14T12:45:03;11.70;;;3.70;;
43182;SDS011;28802;38.578;-0.066;2022-11-14T12:57:37;15.37;;;5.53;;
43182;SDS011;28802;38.578;-0.066;2022-11-14T13:03:39;13.73;;;4.00;;
43182;SDS011;28802;38.578;-0.066;2022-11-14T13:12:25;11.80;;;3.57;;
43182;SDS011;28802;38.578;-0.066;2022-11-14T13:15:34;201.83;;;19.70;;
43182;SDS011;28802;38.578;-0.066;2022-11-14T13:27:44;14.03;;;4.47;;
43182;SDS011;28802;38.578;-0.066;2022-11-14T13:33:57;16.10;;;3.97;;
43182;SDS011;28802;38.578;-0.066;2022-11-14T13:43:04;10.40;;;3.53;;
43182;SDS011;28802;38.578;-0.066;2022-11-14T13:52:32;16.43;;;4.67;;
43182;SDS011;28802;38.578;-0.066;2022-11-14T13:58:24;15.93;;;5.00;;
43182;SDS011;28802;38.578;-0.066;2022-11-14T14:13:45;8.17;;;4.50;;
43182;SDS011;28802;38.578;-0.066;2022-11-14T14:16:40;14.13;;;5.30;;
43182;SDS011;28802;38.578;-0.066;2022-11-14T14:19:33;17.93;;;5.33;;
43182;SDS011;28802;38.578;-0.066;2022-11-14T14:31:36;20.23;;;4.70;;
43182;SDS011;28802;38.578;-0.066;2022-11-14T14:37:17;10.47;;;4.50;;
43182;SDS011;28802;38.578;-0.066;2022-11-14T14:40:05;13.60;;;4.70;;
43182;SDS011;28802;38.578;-0.066;2022-11-14T14:42:54;13.57;;;5.20;;
43182;SDS011;28802;38.578;-0.066;2022-11-14T14:45:50;8.57;;;4.10;;
43182;SDS011;28802;38.578;-0.066;2022-11-14T14:48:38;12.43;;;4.43;;
43182;SDS011;28802;38.578;-0.066;2022-11-14T14:51:28;9.40;;;4.50;;
43182;SDS011;28802;38.578;-0.066;2022-11-14T14:54:19;10.93;;;4.80;;
43182;SDS011;28802;38.578;-0.066;2022-11-14T14:57:14;28.30;;;5.80;;
43182;SDS011;28802;38.578;-0.066;2022-11-14T15:00:05;20.70;;;5.03;;
43182;SDS011;28802;38.578;-0.066;2022-11-14T15:02:59;12.77;;;4.43;;
43182;SDS011;28802;38.578;-0.066;2022-11-14T15:05:43;19.10;;;4.30;;
43182;SDS011;28802;38.578;-0.066;2022-11-14T15:08:28;15.47;;;4.43;;
43182;SDS011;28802;38.578;-0.066;2022-11-14T15:11:18;17.40;;;4.90;;
43182;SDS011;28802;38.578;-0.066;2022-11-14T15:14:02;17.67;;;4.47;;
43182;SDS011;28802;38.578;-0.066;2022-11-14T15:16:48;21.63;;;4.70;;
43182;SDS011;28802;38.578;-0.066;2022-11-14T15:19:38;15.40;;;4.03;;
43182;SDS011;28802;38.578;-0.066;2022-11-14T15:22:25;10.40;;;3.77;;
43182;SDS011;28802;38.578;-0.066;2022-11-14T15:27:56;25.73;;;4.80;;
43182;SDS011;28802;38.578;-0.066;2022-11-14T15:30:57;15.27;;;4.73;;
43182;SDS011;28802;38.578;-0.066;2022-11-14T15:34:00;13.30;;;4.33;;
43182;SDS011;28802;38.578;-0.066;2022-11-14T15:40:21;17.03;;;4.50;;
43182;SDS011;28802;38.578;-0.066;2022-11-14T15:46:31;14.60;;;4.20;;
43182;SDS011;28802;38.578;-0.066;2022-11-14T15:49:19;15.17;;;4.53;;
43182;SDS011;28802;38.578;-0.066;2022-11-14T15:55:42;14.23;;;5.53;;
43182;SDS011;28802;38.578;-0.066;2022-11-14T15:58:26;17.63;;;5.77;;
43182;SDS011;28802;38.578;-0.066;2022-11-14T16:01:12;17.20;;;5.10;;
43182;SDS011;28802;38.578;-0.066;2022-11-14T16:04:03;13.10;;;4.73;;
43182;SDS011;28802;38.578;-0.066;2022-11-14T16:06:47;15.87;;;4.83;;
43182;SDS011;28802;38.578;-0.066;2022-11-14T16:09:32;13.20;;;4.47;;
43182;SDS011;28802;38.578;-0.066;2022-11-14T16:12:17;16.93;;;4.70;;
43182;SDS011;28802;38.578;-0.066;2022-11-14T16:15:01;14.63;;;4.43;;
43182;SDS011;28802;38.578;-0.066;2022-11-14T16:17:47;17.13;;;5.07;;
43182;SDS011;28802;38.578;-0.066;2022-11-14T16:20:32;18.80;;;5.47;;
43182;SDS011;28802;38.578;-0.066;2022-11-14T16:23:20;18.07;;;4.97;;
43182;SDS011;28802;38.578;-0.066;2022-11-14T16:26:05;12.33;;;5.13;;
43182;SDS011;28802;38.578;-0.066;2022-11-14T16:28:49;19.00;;;4.70;;
43182;SDS011;28802;38.578;-0.066;2022-11-14T16:31:34;13.50;;;5.13;;
43182;SDS011;28802;38.578;-0.066;2022-11-14T16:34:20;16.80;;;5.13;;
43182;SDS011;28802;38.578;-0.066;2022-11-14T16:37:10;13.00;;;4.00;;
43182;SDS011;28802;38.578;-0.066;2022-11-14T16:39:56;14.50;;;4.77;;
43182;SDS011;28802;38.578;-0.066;2022-11-14T16:42:40;24.10;;;4.77;;
43182;SDS011;28802;38.578;-0.066;2022-11-14T16:45:25;15.27;;;4.87;;
43182;SDS011;28802;38.578;-0.066;2022-11-14T16:48:10;38.33;;;6.80;;
43182;SDS011;28802;38.578;-0.066;2022-11-14T16:50:58;19.50;;;4.53;;
43182;SDS011;28802;38.578;-0.066;2022-11-14T16:53:44;14.63;;;4.20;;
43182;SDS011;28802;38.578;-0.066;2022-11-14T16:56:32;18.70;;;5.57;;
43182;SDS011;28802;38.578;-0.066;2022-11-14T16:59:16;14.53;;;4.33;;
43182;SDS011;28802;38.578;-0.066;2022-11-14T17:02:01;15.53;;;5.17;;
43182;SDS011;28802;38.578;-0.066;2022-11-14T17:04:46;11.27;;;4.80;;
43182;SDS011;28802;38.578;-0.066;2022-11-14T17:07:30;15.70;;;4.83;;
43182;SDS011;28802;38.578;-0.066;2022-11-14T17:10:16;12.73;;;4.30;;
43182;SDS011;28802;38.578;-0.066;2022-11-14T17:13:01;16.00;;;5.53;;
43182;SDS011;28802;38.578;-0.066;2022-11-14T17:15:45;16.70;;;4.50;;
43182;SDS011;28802;38.578;-0.066;2022-11-14T17:18:30;26.57;;;4.83;;
43182;SDS011;28802;38.578;-0.066;2022-11-14T17:21:14;18.47;;;5.90;;
43182;SDS011;28802;38.578;-0.066;2022-11-14T17:23:59;23.80;;;7.10;;
43182;SDS011;28802;38.578;-0.066;2022-11-14T17:26:44;21.10;;;5.80;;
43182;SDS011;28802;38.578;-0.066;2022-11-14T17:29:28;19.37;;;5.10;;
43182;SDS011;28802;38.578;-0.066;2022-11-14T17:32:13;14.87;;;6.30;;
43182;SDS011;28802;38.578;-0.066;2022-11-14T17:34:58;15.53;;;5.47;;
43182;SDS011;28802;38.578;-0.066;2022-11-14T17:37:42;13.43;;;6.00;;
43182;SDS011;28802;38.578;-0.066;2022-11-14T17:40:27;12.90;;;5.07;;
43182;SDS011;28802;38.578;-0.066;2022-11-14T17:43:14;11.13;;;4.97;;
43182;SDS011;28802;38.578;-0.066;2022-11-14T17:46:00;13.67;;;4.00;;
43182;SDS011;28802;38.578;-0.066;2022-11-14T17:48:45;21.70;;;5.20;;
43182;SDS011;28802;38.578;-0.066;2022-11-14T17:51:29;11.50;;;4.13;;
43182;SDS011;28802;38.578;-0.066;2022-11-14T17:54:14;16.40;;;4.97;;
43182;SDS011;28802;38.578;-0.066;2022-11-14T17:56:59;6.73;;;3.33;;
43182;SDS011;28802;38.578;-0.066;2022-11-14T17:59:43;10.60;;;4.03;;
43182;SDS011;28802;38.578;-0.066;2022-11-14T18:02:28;12.40;;;4.10;;
43182;SDS011;28802;38.578;-0.066;2022-11-14T18:05:13;14.30;;;4.07;;
43182;SDS011;28802;38.578;-0.066;2022-11-14T18:08:00;18.73;;;5.67;;
43182;SDS011;28802;38.578;-0.066;2022-11-14T18:10:44;17.50;;;5.30;;
43182;SDS011;28802;38.578;-0.066;2022-11-14T18:13:29;14.90;;;5.00;;
43182;SDS011;28802;38.578;-0.066;2022-11-14T18:16:15;10.93;;;4.70;;
43182;SDS011;28802;38.578;-0.066;2022-11-14T18:19:01;30.73;;;6.20;;
43182;SDS011;28802;38.578;-0.066;2022-11-14T18:21:46;18.83;;;5.23;;
43182;SDS011;28802;38.578;-0.066;2022-11-14T18:24:30;13.50;;;4.70;;